Time;durP1;ratioP1;P1;durP2;ratioP2;P2;SDS_P1;SDS_P2;PMS_P1;PMS_P2;Temp;Humidity;BMP_temperature;BMP_pressure;BME280_temperature;BME280_humidity;BME280_pressure;Samples;Min_cycle;Max_cycle;Signal;HPM_P1;HPM_P2
2021/03/15 00:00:06;;;;;;;1.75;1.48;;;;;;;8.00;63.34;92271.19;5110578;28;20032;-61
2021/03/15 00:02:31;;;;;;;5.07;1.55;;;;;;;8.10;63.14;92269.28;5092389;28;20031;-60
2021/03/15 00:04:57;;;;;;;2.38;2.00;;;;;;;8.14;63.13;92275.13;5110944;28;20073;-61
2021/03/15 00:07:22;;;;;;;0.98;0.98;;;;;;;8.19;63.29;92276.19;5110509;28;20103;-62
2021/03/15 00:09:48;;;;;;;0.93;0.88;;;;;;;8.26;62.96;92269.94;5110479;28;20036;-60
2021/03/15 00:12:13;;;;;;;2.72;1.55;;;;;;;8.45;62.89;92286.63;5110051;28;20024;-60
2021/03/15 00:14:39;;;;;;;2.88;1.23;;;;;;;8.11;63.78;92284.50;5110336;28;20019;-63
2021/03/15 00:17:04;;;;;;;2.20;1.95;;;;;;;8.01;64.27;92277.44;5110048;28;20051;-63
2021/03/15 00:19:30;;;;;;;0.93;0.93;;;;;;;7.74;64.91;92284.75;5110129;28;20019;-63
2021/03/15 00:21:55;;;;;;;2.33;1.17;;;;;;;7.77;64.94;92283.63;5110218;28;20479;-64
2021/03/15 00:24:21;;;;;;;2.15;1.95;;;;;;;7.89;64.95;92284.66;5110033;28;20028;-64
2021/03/15 00:26:46;;;;;;;3.20;1.02;;;;;;;7.89;64.78;92273.66;5109772;28;20126;-63
2021/03/15 00:29:12;;;;;;;0.93;0.93;;;;;;;7.85;64.83;92276.06;5110242;28;20012;-63
2021/03/15 00:31:37;;;;;;;1.48;1.10;;;;;;;7.87;63.86;92238.50;5110454;28;20019;-64
2021/03/15 00:34:02;;;;;;;1.08;1.08;;;;;;;8.23;63.44;92268.28;5110322;28;20050;-63
2021/03/15 00:36:28;;;;;;;1.58;1.52;;;;;;;8.26;62.89;92259.66;5110550;28;20023;-63
2021/03/15 00:38:53;;;;;;;3.92;3.03;;;;;;;8.23;63.18;92258.00;5110341;28;20027;-63
2021/03/15 00:41:18;;;;;;;3.28;2.97;;;;;;;8.18;63.94;92258.25;5110271;28;20435;-63
2021/03/15 00:43:44;;;;;;;1.73;1.63;;;;;;;8.13;64.31;92261.94;5110122;28;20016;-63
2021/03/15 00:46:09;;;;;;;1.50;1.38;;;;;;;8.08;63.99;92260.13;5110279;28;20069;-63
2021/03/15 00:48:35;;;;;;;1.02;1.00;;;;;;;7.97;64.48;92246.88;5110394;28;20030;-62
2021/03/15 00:51:00;;;;;;;1.08;1.08;;;;;;;8.10;63.96;92252.78;5112693;28;20019;-59
2021/03/15 00:53:26;;;;;;;0.55;0.55;;;;;;;8.24;63.41;92245.00;5114014;28;20055;-61
2021/03/15 00:55:51;;;;;;;1.95;1.85;;;;;;;8.35;62.85;92247.31;5113886;28;20407;-62
2021/03/15 00:58:16;;;;;;;2.72;2.53;;;;;;;8.36;63.04;92241.25;5113949;28;20098;-64
2021/03/15 01:00:44;;;;;;;2.20;1.40;;;;;;;8.39;62.81;92229.13;5113625;28;20510;-61
2021/03/15 01:03:10;;;;;;;1.42;1.33;;;;;;;8.35;63.35;92230.81;5113984;28;20027;-61
2021/03/15 01:05:39;;;;;;;2.33;2.15;;;;;;;8.26;63.59;92234.91;5113712;28;20102;-60
2021/03/15 01:08:07;;;;;;;0.68;0.68;;;;;;;8.11;63.47;92226.03;5113630;28;20448;-60
2021/03/15 01:10:34;;;;;;;1.02;0.98;;;;;;;8.25;62.80;92221.72;5113658;28;20030;-60
2021/03/15 01:12:59;;;;;;;1.27;1.10;;;;;;;8.13;63.54;92226.19;5113479;28;20034;-60
2021/03/15 01:15:25;;;;;;;0.73;0.73;;;;;;;7.87;64.13;92213.75;5113467;28;20027;-60
2021/03/15 01:17:50;;;;;;;0.85;0.85;;;;;;;7.75;64.40;92201.78;5113489;28;20068;-60
2021/03/15 01:20:16;;;;;;;1.23;1.20;;;;;;;7.88;64.16;92204.25;5113181;28;20069;-61
2021/03/15 01:22:42;;;;;;;0.60;0.60;;;;;;;7.75;64.86;92199.03;5108415;28;20019;-60
2021/03/15 01:25:09;;;;;;;3.20;2.30;;;;;;;7.94;64.53;92198.50;5113013;28;20047;-60
2021/03/15 01:27:35;;;;;;;1.73;1.63;;;;;;;8.11;63.96;92184.81;5106935;28;20027;-61
2021/03/15 01:30:00;;;;;;;0.82;0.82;;;;;;;8.19;63.47;92183.44;5113174;28;20477;-59
2021/03/15 01:32:25;;;;;;;1.00;0.95;;;;;;;8.11;63.80;92184.81;5113153;28;20101;-61
2021/03/15 01:34:51;;;;;;;0.75;0.75;;;;;;;8.03;64.81;92184.16;5113449;28;20015;-61
2021/03/15 01:37:16;;;;;;;0.82;0.82;;;;;;;8.10;64.69;92173.06;5113145;28;20020;-60
2021/03/15 01:39:42;;;;;;;1.33;1.23;;;;;;;8.08;64.62;92172.19;5112927;28;20043;-59
2021/03/15 01:42:07;;;;;;;1.17;1.05;;;;;;;7.93;65.70;92173.03;5112903;28;20028;-62
2021/03/15 01:44:33;;;;;;;1.88;1.67;;;;;;;7.73;66.83;92171.38;5112934;28;20030;-63
2021/03/15 01:46:59;;;;;;;1.63;1.52;;;;;;;7.92;66.23;92149.63;5112987;28;20416;-64
2021/03/15 01:49:25;;;;;;;4.57;4.13;;;;;;;7.68;67.79;92155.13;5112736;28;20019;-65
2021/03/15 01:51:50;;;;;;;1.45;1.33;;;;;;;7.84;67.85;92154.44;5112901;28;20024;-61
2021/03/15 01:54:18;;;;;;;1.55;1.45;;;;;;;8.05;67.15;92146.56;5112698;28;20024;-61
2021/03/15 01:56:43;;;;;;;1.15;1.13;;;;;;;7.99;68.15;92151.53;5112694;28;20023;-61
2021/03/15 01:59:09;;;;;;;1.77;1.27;;;;;;;7.73;68.51;92123.94;5094484;28;20054;-64
2021/03/15 02:01:35;;;;;;;2.00;1.90;;;;;;;7.89;69.13;92155.50;5112354;28;20023;-64
2021/03/15 02:04:00;;;;;;;4.00;2.17;;;;;;;7.72;69.52;92144.47;5094558;28;20027;-64
2021/03/15 02:06:25;;;;;;;0.82;0.80;;;;;;;7.68;69.21;92144.13;5112455;28;20073;-65
2021/03/15 02:08:51;;;;;;;3.15;1.33;;;;;;;7.58;69.08;92133.75;5112461;28;20075;-64
2021/03/15 02:11:27;;;;;;;1.88;1.30;;;;;;;7.81;68.44;92128.09;5112573;28;20012;-63
2021/03/15 02:14:19;;;;;;;1.05;1.05;;;;;;;7.94;68.26;92125.03;5094118;28;20028;-61
2021/03/15 02:17:43;;;;;;;1.00;1.00;;;;;;;7.96;68.18;92121.72;5094252;28;20019;-61
2021/03/15 02:20:42;;;;;;;1.17;1.08;;;;;;;7.67;69.24;92110.44;5072309;28;20482;-61
2021/03/15 02:23:13;;;;;;;3.08;1.38;;;;;;;7.81;68.70;92113.63;5112158;28;20024;-62
2021/03/15 02:25:59;;;;;;;2.30;2.10;;;;;;;7.59;68.88;92110.50;5111862;28;20048;-61
2021/03/15 02:28:27;;;;;;;0.90;0.90;;;;;;;7.40;69.41;92110.28;5092573;28;20096;-60
2021/03/15 02:31:17;;;;;;;1.02;1.00;;;;;;;7.46;69.67;92110.06;5093792;28;20488;-62
2021/03/15 02:33:57;;;;;;;6.30;1.48;;;;;;;7.01;70.86;92105.63;5112042;28;20020;-62
2021/03/15 02:36:25;;;;;;;0.80;0.80;;;;;;;7.03;71.01;92107.78;5112077;28;20015;-64
2021/03/15 02:38:51;;;;;;;1.42;1.33;;;;;;;7.22;70.50;92111.50;5093683;28;20024;-64
2021/03/15 02:41:18;;;;;;;0.52;0.52;;;;;;;6.86;71.48;92105.69;5093621;28;20026;-64
2021/03/15 02:43:50;;;;;;;3.00;2.00;;;;;;;6.93;71.19;92093.22;5111774;28;20027;-65
2021/03/15 02:46:18;;;;;;;2.33;0.82;;;;;;;7.18;70.42;92091.22;5111886;28;20104;-64
2021/03/15 02:48:44;;;;;;;1.42;1.33;;;;;;;7.03;70.66;92077.59;5111875;28;20032;-61
2021/03/15 02:51:11;;;;;;;1.63;1.17;;;;;;;7.14;70.44;92083.41;5111636;28;20019;-62
2021/03/15 02:53:42;;;;;;;2.15;1.88;;;;;;;6.93;70.64;92080.22;5093508;28;20020;-63
2021/03/15 02:56:12;;;;;;;1.13;1.13;;;;;;;6.89;70.54;92077.88;5093568;28;20027;-59
2021/03/15 02:58:38;;;;;;;1.02;0.75;;;;;;;6.82;70.44;92072.44;5093420;28;20023;-60
2021/03/15 03:01:04;;;;;;;1.23;1.13;;;;;;;6.65;71.17;92064.84;5093345;28;20769;-60
2021/03/15 03:03:30;;;;;;;5.05;1.33;;;;;;;6.72;71.19;92060.59;5093280;28;20593;-60
2021/03/15 03:05:56;;;;;;;1.38;1.30;;;;;;;6.78;70.67;92059.09;5093455;28;20015;-61
2021/03/15 03:08:21;;;;;;;4.07;2.83;;;;;;;6.55;71.36;92052.28;5093237;28;20518;-60
2021/03/15 03:10:48;;;;;;;1.88;1.50;;;;;;;6.71;70.45;92062.59;5093070;28;20500;-59
2021/03/15 03:13:15;;;;;;;0.85;0.85;;;;;;;6.30;71.05;92013.88;5110654;28;20114;-59
2021/03/15 03:15:41;;;;;;;5.38;1.85;;;;;;;6.58;70.65;92048.44;5093135;28;20015;-59
2021/03/15 03:18:07;;;;;;;1.02;1.02;;;;;;;6.65;72.58;92051.13;5111128;28;20077;-61
2021/03/15 03:20:33;;;;;;;1.00;1.00;;;;;;;6.66;72.98;92043.63;5092867;28;20028;-62
2021/03/15 03:23:01;;;;;;;1.40;1.30;;;;;;;6.82;73.40;92047.75;5111138;28;20031;-63
2021/03/15 03:25:28;;;;;;;4.75;2.22;;;;;;;6.88;73.53;92048.25;5110851;28;20052;-61
2021/03/15 03:27:55;;;;;;;1.85;1.58;;;;;;;6.98;72.97;92029.16;5093161;28;20035;-61
2021/03/15 03:30:32;;;;;;;0.70;0.70;;;;;;;7.03;70.82;92037.19;5093050;28;20084;-59
2021/03/15 03:33:01;;;;;;;3.67;2.33;;;;;;;6.93;70.14;92035.63;5111141;28;20027;-59
2021/03/15 03:35:27;;;;;;;2.40;2.30;;;;;;;6.89;71.02;92030.50;5092906;28;20400;-59
2021/03/15 03:37:52;;;;;;;1.13;1.13;;;;;;;6.60;70.93;92007.47;5110807;28;20032;-59
2021/03/15 03:40:19;;;;;;;1.80;1.70;;;;;;;6.80;71.51;92026.34;5110779;28;20034;-59
2021/03/15 03:42:44;;;;;;;4.57;2.45;;;;;;;6.81;71.36;92025.06;5110857;28;20028;-62
2021/03/15 03:45:11;;;;;;;3.50;3.25;;;;;;;6.63;72.75;92025.53;5110688;28;20039;-61
2021/03/15 03:47:37;;;;;;;0.93;0.93;;;;;;;6.63;73.04;92018.06;5110781;28;20051;-59
2021/03/15 03:50:09;;;;;;;0.98;0.98;;;;;;;6.71;74.16;92015.97;5092674;28;20480;-59
2021/03/15 03:52:37;;;;;;;1.95;1.73;;;;;;;6.88;73.50;92009.84;5110952;28;20048;-59
2021/03/15 03:55:05;;;;;;;3.05;2.85;;;;;;;6.95;72.61;92008.34;5092539;28;20015;-59
2021/03/15 03:57:32;;;;;;;7.50;2.40;;;;;;;6.89;72.39;92011.28;5092702;28;20023;-60
2021/03/15 04:00:01;;;;;;;2.80;2.60;;;;;;;6.85;71.73;92014.44;5092564;28;20031;-59
2021/03/15 04:02:27;;;;;;;4.75;2.03;;;;;;;6.84;72.68;92023.22;5110610;28;20440;-59
2021/03/15 04:05:06;;;;;;;2.97;2.78;;;;;;;6.81;72.25;92013.38;5110929;28;20085;-58
2021/03/15 04:07:33;;;;;;;1.33;1.25;;;;;;;6.93;72.29;92019.84;5110768;28;20035;-59
2021/03/15 04:10:05;;;;;;;2.25;2.05;;;;;;;6.90;72.35;92023.75;5092410;28;20039;-59
2021/03/15 04:12:32;;;;;;;2.55;2.30;;;;;;;6.89;72.76;92014.78;5110558;28;20024;-57
2021/03/15 04:14:59;;;;;;;4.07;3.22;;;;;;;6.97;72.58;92017.47;5092493;28;20036;-59
2021/03/15 04:17:29;;;;;;;1.95;1.85;;;;;;;6.89;72.53;92006.53;5092397;28;20103;-60
2021/03/15 04:19:58;;;;;;;1.67;1.60;;;;;;;6.94;72.27;92004.88;5092713;28;20473;-60
2021/03/15 04:22:26;;;;;;;2.40;2.28;;;;;;;6.93;72.32;91999.94;5092311;28;20020;-60
2021/03/15 04:24:53;;;;;;;4.38;2.13;;;;;;;6.91;71.82;91984.03;5092858;28;20028;-59
2021/03/15 04:27:19;;;;;;;1.52;1.42;;;;;;;6.80;72.11;91990.69;5096371;28;20027;-60
2021/03/15 04:29:45;;;;;;;4.15;1.15;;;;;;;6.88;73.42;91988.63;5114590;28;20102;-60
2021/03/15 04:32:11;;;;;;;2.90;2.70;;;;;;;6.91;74.39;91983.31;5079170;28;20088;-60
2021/03/15 04:34:37;;;;;;;0.98;0.98;;;;;;;7.09;74.67;91982.06;5114388;28;20035;-60
2021/03/15 04:37:04;;;;;;;0.98;0.98;;;;;;;7.12;74.13;91975.47;5096114;28;20034;-59
2021/03/15 04:39:30;;;;;;;1.50;1.50;;;;;;;7.10;74.55;91969.81;5095927;28;20035;-59
2021/03/15 04:41:57;;;;;;;2.00;1.58;;;;;;;7.09;74.98;91973.81;5114136;28;20028;-60
2021/03/15 04:44:24;;;;;;;0.90;0.90;;;;;;;7.18;74.65;91975.94;5114057;28;20027;-59
2021/03/15 04:46:49;;;;;;;2.75;2.47;;;;;;;7.16;74.90;91968.28;5114075;28;20051;-60
2021/03/15 04:49:15;;;;;;;1.27;1.27;;;;;;;7.31;74.00;91957.16;5095981;28;20023;-60
2021/03/15 04:51:41;;;;;;;3.00;2.03;;;;;;;7.33;73.65;91956.59;5095788;28;20030;-59
2021/03/15 04:54:06;;;;;;;1.38;1.27;;;;;;;7.21;74.02;91945.34;5114340;28;20024;-59
2021/03/15 04:56:34;;;;;;;1.85;1.75;;;;;;;7.22;74.10;91944.06;5113758;28;20024;-58
2021/03/15 04:58:59;;;;;;;10.80;1.80;;;;;;;7.08;74.59;91940.16;5095878;28;20070;-59
2021/03/15 05:01:28;;;;;;;2.03;1.92;;;;;;;7.12;74.81;91940.50;5095803;28;20051;-59
2021/03/15 05:03:54;;;;;;;1.80;1.70;;;;;;;6.91;74.72;91914.72;5095808;28;20032;-59
2021/03/15 05:06:20;;;;;;;1.83;1.73;;;;;;;7.03;75.00;91932.19;5095600;28;20061;-57
2021/03/15 05:08:47;;;;;;;0.57;0.57;;;;;;;7.00;74.97;91928.53;5095532;28;20035;-58
2021/03/15 05:11:13;;;;;;;4.15;1.98;;;;;;;7.08;74.25;91937.41;5113709;28;20457;-60
2021/03/15 05:13:39;;;;;;;3.72;2.42;;;;;;;6.94;73.44;91941.75;5113712;28;20088;-54
2021/03/15 05:16:05;;;;;;;1.65;1.25;;;;;;;7.06;72.56;91934.50;5113438;28;20589;-59
2021/03/15 05:18:31;;;;;;;3.25;2.42;;;;;;;6.88;72.49;91911.81;5113597;28;20027;-59
2021/03/15 05:20:57;;;;;;;3.22;1.90;;;;;;;6.91;72.87;91929.16;5113335;28;20461;-59
2021/03/15 05:23:22;;;;;;;1.58;1.52;;;;;;;6.90;74.26;91930.47;5113286;28;20028;-59
2021/03/15 05:25:51;;;;;;;1.23;1.13;;;;;;;6.97;74.52;91935.16;5095027;28;20075;-59
2021/03/15 05:28:17;;;;;;;1.90;1.80;;;;;;;7.11;73.90;91928.06;5113271;28;20015;-60
2021/03/15 05:30:43;;;;;;;0.77;0.77;;;;;;;7.11;73.92;91939.03;5095121;28;20030;-60
2021/03/15 05:33:13;;;;;;;1.02;1.02;;;;;;;6.96;74.01;91922.72;5094916;28;20020;-60
2021/03/15 05:35:43;;;;;;;1.17;0.85;;;;;;;7.15;73.66;91935.91;5112886;28;20085;-60
2021/03/15 05:38:10;;;;;;;1.45;1.35;;;;;;;7.15;72.48;91916.69;5113255;28;20036;-60
2021/03/15 05:40:37;;;;;;;0.80;0.80;;;;;;;7.23;71.79;91936.56;5094908;28;20038;-60
2021/03/15 05:43:14;;;;;;;2.10;2.00;;;;;;;7.23;72.00;91947.56;5113505;28;20088;-59
2021/03/15 05:46:24;;;;;;;2.85;2.65;;;;;;;7.35;72.20;91943.75;5112916;28;20141;-62
2021/03/15 05:49:27;;;;;;;3.15;2.47;;;;;;;7.44;72.02;91943.13;5032440;28;20678;-64
2021/03/15 05:52:16;;;;;;;4.25;3.55;;;;;;;7.48;72.33;91942.72;5112320;28;20027;-58
2021/03/15 05:55:00;;;;;;;;;;;;;;;7.84;71.42;91944.91;5095377;28;20035;-61
2021/03/15 05:57:54;;;;;;;3.58;3.28;;;;;;;8.18;70.73;91933.84;5112640;28;19908;-63
2021/03/15 06:00:36;;;;;;;5.97;3.55;;;;;;;8.36;70.72;91933.25;5112736;28;20038;-59
2021/03/15 06:03:39;;;;;;;4.28;2.33;;;;;;;8.80;69.43;91940.69;5094521;28;20458;-58
2021/03/15 06:06:08;;;;;;;4.07;3.65;;;;;;;9.19;68.63;91934.00;5112497;28;20019;-61
2021/03/15 06:08:43;;;;;;;6.38;5.78;;;;;;;9.49;67.57;91916.22;5094350;28;20054;-64
2021/03/15 06:11:13;;;;;;;2.90;2.55;;;;;;;9.97;65.52;91927.25;5094299;28;20573;-60
2021/03/15 06:13:40;;;;;;;5.60;3.88;;;;;;;9.99;65.35;91921.88;5112453;28;20030;-62
2021/03/15 06:16:07;;;;;;;1.33;1.25;;;;;;;10.16;64.80;91925.22;5094157;28;20518;-59
2021/03/15 06:18:32;;;;;;;3.45;2.95;;;;;;;10.32;64.55;91911.84;5112192;28;20019;-53
2021/03/15 06:20:59;;;;;;;3.25;2.83;;;;;;;10.68;63.23;91916.41;5112115;28;20015;-58
2021/03/15 06:23:26;;;;;;;5.15;3.08;;;;;;;10.68;63.41;91905.38;5106217;28;20619;-59
2021/03/15 06:25:53;;;;;;;1.65;1.55;;;;;;;11.25;61.47;91916.88;5090728;28;20044;-62
2021/03/15 06:28:19;;;;;;;2.38;2.08;;;;;;;11.10;60.68;91919.25;5110611;28;20034;-58
2021/03/15 06:30:47;;;;;;;1.27;1.27;;;;;;;10.89;62.05;91914.44;5111168;28;20053;-61
2021/03/15 06:33:13;;;;;;;1.58;1.48;;;;;;;10.83;62.20;91924.34;5110307;28;20103;-64
2021/03/15 06:35:48;;;;;;;3.88;1.60;;;;;;;10.46;63.37;91912.84;5109446;28;20057;-60
2021/03/15 06:38:17;;;;;;;2.30;1.88;;;;;;;10.33;63.82;91919.53;5110365;28;20492;-59
2021/03/15 06:40:44;;;;;;;1.35;1.25;;;;;;;10.06;65.02;91916.22;5110162;28;20756;-63
2021/03/15 06:43:13;;;;;;;2.90;2.70;;;;;;;10.23;64.63;91920.84;5110315;28;20566;-62
2021/03/15 06:45:38;;;;;;;1.60;1.50;;;;;;;10.17;65.52;91918.41;5107653;28;20133;-59
2021/03/15 06:48:05;;;;;;;2.30;1.50;;;;;;;10.17;65.61;91917.69;5089319;28;20032;-59
2021/03/15 06:50:30;;;;;;;4.25;2.97;;;;;;;10.03;66.26;91894.59;5110902;28;20015;-58
2021/03/15 06:52:58;;;;;;;3.38;3.13;;;;;;;10.34;65.39;91909.22;5105388;28;20030;-58
2021/03/15 06:55:30;;;;;;;1.83;1.35;;;;;;;10.60;64.35;91909.00;5110148;28;20579;-54
2021/03/15 06:57:56;;;;;;;0.95;0.95;;;;;;;10.79;63.79;91907.47;5110048;28;20036;-58
2021/03/15 07:00:26;;;;;;;1.13;1.13;;;;;;;11.05;62.59;91915.50;5110537;28;20019;-55
2021/03/15 07:02:59;;;;;;;1.58;1.48;;;;;;;10.98;62.37;91902.59;5107740;28;20092;-55
2021/03/15 07:05:25;;;;;;;1.40;1.38;;;;;;;11.27;61.19;91903.19;5109409;28;20168;-55
2021/03/15 07:07:53;;;;;;;1.65;1.38;;;;;;;11.24;61.43;91900.88;5100916;28;20111;-52
2021/03/15 07:10:23;;;;;;;1.70;1.60;;;;;;;11.39;60.77;91892.22;5104413;28;20057;-56
2021/03/15 07:12:49;;;;;;;1.38;1.38;;;;;;;11.44;60.86;91896.66;5108697;28;20035;-56
2021/03/15 07:15:15;;;;;;;1.58;1.48;;;;;;;11.72;60.52;91887.47;5108759;28;20032;-49
2021/03/15 07:17:40;;;;;;;1.73;1.58;;;;;;;11.83;59.98;91892.34;5109257;28;20032;-58
2021/03/15 07:20:07;;;;;;;1.80;1.70;;;;;;;12.18;57.91;91887.69;5107841;28;20071;-58
2021/03/15 07:22:33;;;;;;;4.03;2.42;;;;;;;12.27;58.18;91888.19;5097933;28;20484;-56
2021/03/15 07:25:15;;;;;;;1.60;1.50;;;;;;;12.16;57.72;91882.03;5089292;28;20067;-58
2021/03/15 07:27:43;;;;;;;1.65;1.58;;;;;;;12.21;57.80;91871.19;5089798;28;20447;-58
2021/03/15 07:30:27;;;;;;;2.10;1.98;;;;;;;12.83;55.95;91875.75;5089229;28;20032;-58
2021/03/15 07:32:53;;;;;;;3.17;2.72;;;;;;;13.25;55.02;91872.06;5089316;28;20032;-57
2021/03/15 07:35:23;;;;;;;1.55;1.45;;;;;;;13.30;54.25;91868.16;5089344;28;20030;-57
2021/03/15 07:37:48;;;;;;;2.13;1.92;;;;;;;13.03;55.06;91864.44;5089213;28;20508;-51
2021/03/15 07:40:44;;;;;;;2.92;2.72;;;;;;;13.36;54.85;91856.72;5091529;28;20063;-56
2021/03/15 07:43:12;;;;;;;1.90;1.80;;;;;;;13.47;53.29;91851.16;5101087;28;20035;-50
2021/03/15 07:45:39;;;;;;;2.03;1.92;;;;;;;13.78;53.16;91852.88;5069490;28;20035;-50
2021/03/15 07:48:20;;;;;;;1.67;1.10;;;;;;;14.49;51.79;91844.34;5087741;28;20055;-50
2021/03/15 07:51:11;;;;;;;2.13;1.67;;;;;;;14.73;50.53;91839.38;5104964;28;20027;-50
2021/03/15 07:53:43;;;;;;;1.88;1.77;;;;;;;15.28;49.74;91838.09;5085088;28;20634;-49
2021/03/15 07:56:11;;;;;;;1.67;1.25;;;;;;;16.31;47.03;91827.16;5108055;28;20019;-52
2021/03/15 07:58:40;;;;;;;1.77;1.67;;;;;;;18.14;42.16;91831.75;5104547;28;20032;-52
2021/03/15 08:01:07;;;;;;;1.95;1.65;;;;;;;18.45;38.99;91828.13;5112653;28;20088;-53
2021/03/15 08:03:36;;;;;;;0.68;0.68;;;;;;;17.48;41.79;91835.22;5112466;28;20020;-53
2021/03/15 08:06:02;;;;;;;2.00;1.42;;;;;;;17.57;41.08;91808.41;5109921;28;20027;-51
2021/03/15 08:08:28;;;;;;;2.53;1.55;;;;;;;17.16;42.31;91812.25;5112217;28;20031;-51
2021/03/15 08:10:54;;;;;;;1.67;1.35;;;;;;;16.56;42.72;91815.84;5112175;28;20022;-52
2021/03/15 08:13:24;;;;;;;1.92;1.80;;;;;;;15.83;44.89;91802.59;5112136;28;20515;-50
2021/03/15 08:15:52;;;;;;;2.28;1.50;;;;;;;15.54;45.55;91808.84;5112527;28;20118;-53
2021/03/15 08:18:26;;;;;;;2.53;1.35;;;;;;;15.25;47.22;91797.63;5112389;28;20452;-49
2021/03/15 08:21:06;;;;;;;2.05;0.80;;;;;;;15.43;46.31;91793.00;5112738;28;20016;-52
2021/03/15 08:23:35;;;;;;;2.55;1.42;;;;;;;16.09;46.00;91789.91;5094832;28;20126;-53
2021/03/15 08:26:02;;;;;;;;;;;;;;;16.34;44.69;91789.72;5095417;28;20083;-51
2021/03/15 08:28:28;;;;;;;1.92;1.83;;;;;;;16.71;43.33;91783.03;5110122;28;19981;-49
2021/03/15 08:30:57;;;;;;;1.83;1.70;;;;;;;16.98;43.22;91780.09;5076047;28;20554;-55
2021/03/15 08:33:23;;;;;;;2.00;1.35;;;;;;;16.46;43.04;91783.97;5093484;28;20035;-58
2021/03/15 08:35:53;;;;;;;1.58;0.95;;;;;;;15.87;44.26;91775.66;5086797;28;20073;-58
2021/03/15 08:38:18;;;;;;;2.22;1.33;;;;;;;15.51;45.94;91779.47;5112214;28;20073;-55
2021/03/15 08:40:44;;;;;;;2.55;1.20;;;;;;;15.36;45.77;91771.03;5094885;28;20618;-51
2021/03/15 08:43:18;;;;;;;2.95;2.22;;;;;;;15.35;46.04;91767.56;5111455;28;20142;-49
2021/03/15 08:46:16;;;;;;;2.75;2.28;;;;;;;15.20;46.31;91765.41;5092506;28;20020;-47
2021/03/15 08:48:41;;;;;;;0.38;0.38;;;;;;;14.71;48.12;91767.03;5092772;28;20031;-48
2021/03/15 08:51:11;;;;;;;3.25;2.28;;;;;;;14.71;47.83;91762.22;5092443;28;20028;-50
2021/03/15 08:53:37;;;;;;;2.58;2.35;;;;;;;14.46;48.32;91762.28;5092640;28;20012;-48
2021/03/15 08:56:18;;;;;;;1.90;1.75;;;;;;;14.21;49.19;91754.69;5097808;28;20435;-47
2021/03/15 08:58:51;;;;;;;1.65;1.55;;;;;;;13.75;50.15;91745.94;5086845;28;20028;-50
2021/03/15 09:01:41;;;;;;;2.10;1.92;;;;;;;13.58;51.62;91747.81;5108325;28;20102;-49
2021/03/15 09:04:06;;;;;;;3.03;1.98;;;;;;;13.52;51.25;91750.25;5110894;28;20107;-51
2021/03/15 09:06:32;;;;;;;1.65;1.38;;;;;;;13.51;51.24;91740.47;5091276;28;20026;-52
2021/03/15 09:09:01;;;;;;;2.40;2.25;;;;;;;13.52;51.42;91736.38;5105786;28;20177;-49
2021/03/15 09:11:39;;;;;;;1.33;1.25;;;;;;;13.47;51.87;91740.25;5109034;28;20521;-58
2021/03/15 09:14:13;;;;;;;0.95;0.95;;;;;;;13.33;52.77;91722.84;5109645;28;20027;-58
2021/03/15 09:16:43;;;;;;;1.25;0.88;;;;;;;13.18;53.03;91725.41;5109201;28;20055;-57
2021/03/15 09:19:18;;;;;;;;;;;;;;;13.32;51.81;91718.63;5111232;28;20474;-58
2021/03/15 09:21:57;;;;;;;2.45;1.35;;;;;;;13.55;52.42;91712.25;5106165;28;20312;-58
2021/03/15 09:24:45;;;;;;;0.98;0.98;;;;;;;13.64;51.59;91720.41;5109207;28;20015;-56
2021/03/15 09:27:10;;;;;;;2.40;1.80;;;;;;;13.63;50.95;91721.75;5110852;28;20047;-58
2021/03/15 09:29:36;;;;;;;0.32;0.32;;;;;;;13.52;51.92;91713.47;5111996;28;20401;-58
2021/03/15 09:32:10;;;;;;;1.13;1.13;;;;;;;13.49;51.99;91703.63;5112444;28;20027;-58
2021/03/15 09:34:37;;;;;;;0.68;0.68;;;;;;;13.35;52.10;91713.91;5111787;28;20031;-57
2021/03/15 09:37:03;;;;;;;0.85;0.85;;;;;;;13.48;52.41;91691.06;5110907;28;20035;-57
2021/03/15 09:39:29;;;;;;;1.58;1.48;;;;;;;13.51;51.43;91684.31;5111359;28;20064;-59
2021/03/15 09:41:57;;;;;;;1.60;1.33;;;;;;;13.80;50.73;91698.38;5112071;28;20028;-59
2021/03/15 09:44:28;;;;;;;1.48;1.15;;;;;;;13.46;51.80;91693.72;5111930;28;20462;-49
2021/03/15 09:46:54;;;;;;;0.93;0.88;;;;;;;13.62;51.18;91689.78;5111388;28;20112;-51
2021/03/15 09:49:40;;;;;;;5.43;1.00;;;;;;;13.49;51.24;91686.97;5111544;28;20104;-52
2021/03/15 09:52:25;;;;;;;1.60;1.23;;;;;;;13.33;52.29;91683.31;5110651;28;20031;-57
2021/03/15 09:54:56;;;;;;;1.50;1.00;;;;;;;13.31;52.03;91678.38;5107706;28;20504;-57
2021/03/15 09:57:23;;;;;;;1.20;1.10;;;;;;;13.17;52.41;91677.59;5110710;28;20031;-57
2021/03/15 09:59:49;;;;;;;0.85;0.73;;;;;;;13.18;52.67;91667.94;5092029;28;20421;-57
2021/03/15 10:02:26;;;;;;;0.80;0.80;;;;;;;13.08;52.42;91659.06;5110199;28;20043;-58
2021/03/15 10:04:51;;;;;;;0.68;0.68;;;;;;;12.94;52.64;91661.03;5107591;28;20031;-57
2021/03/15 10:07:17;;;;;;;0.65;0.60;;;;;;;12.87;53.00;91659.97;5111536;28;20518;-53
2021/03/15 10:09:43;;;;;;;2.47;1.33;;;;;;;12.92;52.97;91650.56;5111146;28;20123;-54
2021/03/15 10:12:14;;;;;;;1.98;1.80;;;;;;;12.81;52.92;91661.66;5111395;28;20050;-50
2021/03/15 10:14:40;;;;;;;3.30;1.65;;;;;;;12.71;53.42;91661.09;5111201;28;20092;-56
2021/03/15 10:17:05;;;;;;;0.20;0.20;;;;;;;12.39;54.39;91651.63;5111476;28;20031;-54
2021/03/15 10:19:32;;;;;;;0.82;0.82;;;;;;;12.59;54.61;91652.81;5111125;28;20028;-52
2021/03/15 10:22:12;;;;;;;0.73;0.73;;;;;;;12.55;54.49;91640.78;5110960;28;20397;-58
2021/03/15 10:24:39;;;;;;;0.75;0.75;;;;;;;12.60;54.67;91645.97;5108102;28;20069;-52
2021/03/15 10:27:14;;;;;;;0.50;0.50;;;;;;;12.74;54.07;91640.50;5106872;28;20519;-51
2021/03/15 10:29:40;;;;;;;0.50;0.50;;;;;;;12.57;55.04;91627.06;5109386;28;20032;-58
2021/03/15 10:32:06;;;;;;;0.80;0.80;;;;;;;12.55;54.65;91630.44;5088699;28;20077;-56
2021/03/15 10:34:31;;;;;;;1.25;1.25;;;;;;;12.53;54.86;91626.81;5088631;28;20019;-57
2021/03/15 10:36:57;;;;;;;0.60;0.60;;;;;;;12.62;54.99;91617.66;5108325;28;20031;-52
2021/03/15 10:39:24;;;;;;;3.05;1.80;;;;;;;12.76;54.53;91615.69;5108542;28;20419;-56
2021/03/15 10:41:51;;;;;;;1.35;1.23;;;;;;;12.74;54.80;91612.78;5091219;28;20036;-53
2021/03/15 10:44:24;;;;;;;0.47;0.47;;;;;;;12.70;54.73;91618.09;5104238;28;20027;-51
2021/03/15 10:46:53;;;;;;;1.88;0.68;;;;;;;12.73;54.17;91614.84;5107166;28;20119;-58
2021/03/15 10:49:21;;;;;;;1.45;1.33;;;;;;;12.55;54.97;91604.78;5094937;28;20023;-57
2021/03/15 10:51:48;;;;;;;1.10;0.95;;;;;;;12.68;54.58;91604.16;5107325;28;20031;-51
2021/03/15 10:54:38;;;;;;;1.50;1.40;;;;;;;12.60;54.32;91593.34;5108545;28;20026;-49
2021/03/15 10:57:14;;;;;;;0.93;0.90;;;;;;;12.87;53.56;91603.84;5108891;28;20034;-51
2021/03/15 10:59:40;;;;;;;1.17;1.17;;;;;;;12.91;53.55;91590.22;5109336;28;20043;-51
2021/03/15 11:02:07;;;;;;;1.00;1.00;;;;;;;12.80;54.45;91583.41;5104867;28;20560;-54
2021/03/15 11:04:41;;;;;;;0.60;0.47;;;;;;;12.86;53.30;91594.09;5105214;28;20062;-58
2021/03/15 11:07:21;;;;;;;0.73;0.73;;;;;;;12.73;54.30;91589.22;5106600;28;20026;-60
2021/03/15 11:10:01;;;;;;;1.55;1.20;;;;;;;12.82;53.96;91586.28;5108871;28;20423;-58
2021/03/15 11:12:48;;;;;;;0.85;0.82;;;;;;;12.74;54.81;91574.03;5110174;28;20046;-60
2021/03/15 11:15:19;;;;;;;1.10;1.02;;;;;;;12.96;53.38;91578.03;5110089;28;20031;-60
2021/03/15 11:18:01;;;;;;;0.88;0.88;;;;;;;13.04;53.24;91567.38;5109848;28;20532;-59
2021/03/15 11:20:39;;;;;;;1.23;0.85;;;;;;;13.08;52.94;91569.69;5109892;28;20611;-60
2021/03/15 11:23:04;;;;;;;0.90;0.90;;;;;;;12.97;52.44;91557.31;5109805;28;20065;-56
2021/03/15 11:25:31;;;;;;;1.00;1.00;;;;;;;12.88;52.78;91542.31;5109821;28;20508;-51
2021/03/15 11:28:14;;;;;;;0.93;0.88;;;;;;;12.76;52.29;91535.38;5109682;28;20081;-55
2021/03/15 11:30:41;;;;;;;0.47;0.47;;;;;;;12.76;51.93;91538.13;5109377;28;20506;-55
2021/03/15 11:33:09;;;;;;;1.40;1.30;;;;;;;12.76;52.44;91527.78;5108748;28;20023;-56
2021/03/15 11:35:39;;;;;;;2.13;1.55;;;;;;;12.97;51.78;91524.09;5110215;28;20023;-54
2021/03/15 11:38:05;;;;;;;0.98;0.77;;;;;;;12.90;52.18;91519.53;5110546;28;20024;-55
2021/03/15 11:40:39;;;;;;;0.88;0.88;;;;;;;12.88;52.29;91516.66;5110491;28;20054;-52
2021/03/15 11:43:06;;;;;;;1.23;1.08;;;;;;;12.91;52.36;91504.34;5110569;28;20023;-53
2021/03/15 11:45:31;;;;;;;0.63;0.63;;;;;;;13.00;51.22;91499.97;5110513;28;20068;-53
2021/03/15 11:47:57;;;;;;;0.65;0.65;;;;;;;13.02;51.71;91486.94;5110248;28;20488;-55
2021/03/15 11:50:24;;;;;;;0.98;0.40;;;;;;;13.10;51.97;91490.19;5110447;28;20099;-51